sensor_id;sensor_type;location;lat;lon;timestamp;P1;durP1;ratioP1;P2;durP2;ratioP2
72379;SDS011;60354;47.798;12.472;2023-03-03T00:02:21;36.22;;;17.58;;
72379;SDS011;60354;47.798;12.472;2023-03-03T00:04:46;32.80;;;17.40;;
72379;SDS011;60354;47.798;12.472;2023-03-03T00:07:12;38.55;;;18.52;;
72379;SDS011;60354;47.798;12.472;2023-03-03T00:09:39;32.53;;;17.45;;
72379;SDS011;60354;47.798;12.472;2023-03-03T00:12:18;37.20;;;18.95;;
72379;SDS011;60354;47.798;12.472;2023-03-03T00:14:48;41.45;;;18.92;;
72379;SDS011;60354;47.798;12.472;2023-03-03T00:17:23;39.72;;;19.00;;
72379;SDS011;60354;47.798;12.472;2023-03-03T00:19:53;37.15;;;18.98;;
72379;SDS011;60354;47.798;12.472;2023-03-03T00:22:26;35.85;;;18.40;;
72379;SDS011;60354;47.798;12.472;2023-03-03T00:25:33;35.55;;;17.88;;
72379;SDS011;60354;47.798;12.472;2023-03-03T00:27:57;38.47;;;19.58;;
72379;SDS011;60354;47.798;12.472;2023-03-03T00:30:31;39.95;;;19.05;;
72379;SDS011;60354;47.798;12.472;2023-03-03T00:32:57;41.38;;;19.00;;
72379;SDS011;60354;47.798;12.472;2023-03-03T00:35:26;39.42;;;19.58;;
72379;SDS011;60354;47.798;12.472;2023-03-03T00:38:10;37.80;;;19.40;;
72379;SDS011;60354;47.798;12.472;2023-03-03T00:40:39;39.58;;;18.70;;
72379;SDS011;60354;47.798;12.472;2023-03-03T00:45:52;39.45;;;18.35;;
72379;SDS011;60354;47.798;12.472;2023-03-03T00:48:29;40.95;;;19.15;;
72379;SDS011;60354;47.798;12.472;2023-03-03T00:50:56;41.85;;;20.05;;
72379;SDS011;60354;47.798;12.472;2023-03-03T00:53:29;38.08;;;18.80;;
72379;SDS011;60354;47.798;12.472;2023-03-03T00:55:55;36.30;;;18.58;;
72379;SDS011;60354;47.798;12.472;2023-03-03T00:58:22;38.22;;;19.65;;
72379;SDS011;60354;47.798;12.472;2023-03-03T01:00:49;39.70;;;18.73;;
72379;SDS011;60354;47.798;12.472;2023-03-03T01:03:20;41.55;;;20.05;;
72379;SDS011;60354;47.798;12.472;2023-03-03T01:05:49;37.22;;;17.90;;
72379;SDS011;60354;47.798;12.472;2023-03-03T01:08:15;36.40;;;18.30;;
72379;SDS011;60354;47.798;12.472;2023-03-03T01:10:45;40.05;;;19.02;;
72379;SDS011;60354;47.798;12.472;2023-03-03T01:13:16;33.47;;;17.27;;
72379;SDS011;60354;47.798;12.472;2023-03-03T01:15:43;33.08;;;17.20;;
72379;SDS011;60354;47.798;12.472;2023-03-03T01:18:09;39.83;;;18.27;;
72379;SDS011;60354;47.798;12.472;2023-03-03T01:20:36;36.38;;;18.30;;
72379;SDS011;60354;47.798;12.472;2023-03-03T01:23:02;37.42;;;17.90;;
72379;SDS011;60354;47.798;12.472;2023-03-03T01:25:27;32.30;;;17.20;;
72379;SDS011;60354;47.798;12.472;2023-03-03T01:27:53;35.90;;;18.35;;
72379;SDS011;60354;47.798;12.472;2023-03-03T01:30:18;36.17;;;18.15;;
72379;SDS011;60354;47.798;12.472;2023-03-03T01:32:44;36.58;;;18.80;;
72379;SDS011;60354;47.798;12.472;2023-03-03T01:35:10;35.53;;;17.60;;
72379;SDS011;60354;47.798;12.472;2023-03-03T01:37:35;36.08;;;17.35;;
72379;SDS011;60354;47.798;12.472;2023-03-03T01:40:02;35.42;;;17.98;;
72379;SDS011;60354;47.798;12.472;2023-03-03T01:42:29;39.25;;;18.88;;
72379;SDS011;60354;47.798;12.472;2023-03-03T01:45:12;35.63;;;17.67;;
72379;SDS011;60354;47.798;12.472;2023-03-03T01:47:38;37.03;;;17.95;;
72379;SDS011;60354;47.798;12.472;2023-03-03T01:50:10;33.95;;;18.08;;
72379;SDS011;60354;47.798;12.472;2023-03-03T01:52:40;36.78;;;18.83;;
72379;SDS011;60354;47.798;12.472;2023-03-03T01:55:11;34.55;;;17.42;;
72379;SDS011;60354;47.798;12.472;2023-03-03T01:57:40;36.00;;;18.02;;
72379;SDS011;60354;47.798;12.472;2023-03-03T02:00:11;34.97;;;17.92;;
72379;SDS011;60354;47.798;12.472;2023-03-03T02:02:41;35.70;;;18.55;;
72379;SDS011;60354;47.798;12.472;2023-03-03T02:05:07;43.58;;;19.63;;
72379;SDS011;60354;47.798;12.472;2023-03-03T02:07:34;34.83;;;17.55;;
72379;SDS011;60354;47.798;12.472;2023-03-03T02:15:28;39.67;;;18.05;;
72379;SDS011;60354;47.798;12.472;2023-03-03T02:18:33;35.00;;;17.85;;
72379;SDS011;60354;47.798;12.472;2023-03-03T02:21:06;35.22;;;16.25;;
72379;SDS011;60354;47.798;12.472;2023-03-03T02:26:27;35.33;;;16.38;;
72379;SDS011;60354;47.798;12.472;2023-03-03T02:28:59;34.33;;;17.43;;
72379;SDS011;60354;47.798;12.472;2023-03-03T02:31:27;31.08;;;15.88;;
72379;SDS011;60354;47.798;12.472;2023-03-03T02:33:53;33.17;;;16.73;;
72379;SDS011;60354;47.798;12.472;2023-03-03T02:36:21;28.38;;;15.85;;
72379;SDS011;60354;47.798;12.472;2023-03-03T02:38:50;31.65;;;16.38;;
72379;SDS011;60354;47.798;12.472;2023-03-03T02:44:11;37.83;;;17.48;;
72379;SDS011;60354;47.798;12.472;2023-03-03T02:46:42;30.45;;;16.40;;
72379;SDS011;60354;47.798;12.472;2023-03-03T02:49:10;31.73;;;16.48;;
72379;SDS011;60354;47.798;12.472;2023-03-03T02:51:38;32.97;;;16.40;;
72379;SDS011;60354;47.798;12.472;2023-03-03T02:54:04;36.38;;;18.38;;
72379;SDS011;60354;47.798;12.472;2023-03-03T02:56:31;33.05;;;17.33;;
72379;SDS011;60354;47.798;12.472;2023-03-03T02:58:57;31.13;;;15.98;;
72379;SDS011;60354;47.798;12.472;2023-03-03T03:01:23;28.75;;;15.50;;
72379;SDS011;60354;47.798;12.472;2023-03-03T03:03:52;32.90;;;17.38;;
72379;SDS011;60354;47.798;12.472;2023-03-03T03:06:21;30.70;;;16.55;;
72379;SDS011;60354;47.798;12.472;2023-03-03T03:08:46;33.17;;;16.75;;
72379;SDS011;60354;47.798;12.472;2023-03-03T03:11:12;34.60;;;16.83;;
72379;SDS011;60354;47.798;12.472;2023-03-03T03:13:38;33.38;;;17.00;;
72379;SDS011;60354;47.798;12.472;2023-03-03T03:16:04;35.60;;;16.73;;
72379;SDS011;60354;47.798;12.472;2023-03-03T03:18:30;32.22;;;16.00;;
72379;SDS011;60354;47.798;12.472;2023-03-03T03:20:57;31.05;;;15.63;;
72379;SDS011;60354;47.798;12.472;2023-03-03T03:23:30;31.30;;;15.88;;
72379;SDS011;60354;47.798;12.472;2023-03-03T03:25:57;28.70;;;15.63;;
72379;SDS011;60354;47.798;12.472;2023-03-03T03:28:26;31.83;;;16.23;;
72379;SDS011;60354;47.798;12.472;2023-03-03T03:30:52;30.63;;;16.17;;
72379;SDS011;60354;47.798;12.472;2023-03-03T03:33:20;30.58;;;15.85;;
72379;SDS011;60354;47.798;12.472;2023-03-03T03:35:45;32.45;;;16.50;;
72379;SDS011;60354;47.798;12.472;2023-03-03T03:38:14;36.35;;;17.55;;
72379;SDS011;60354;47.798;12.472;2023-03-03T03:40:40;32.65;;;17.23;;
72379;SDS011;60354;47.798;12.472;2023-03-03T03:43:06;33.55;;;16.83;;
72379;SDS011;60354;47.798;12.472;2023-03-03T03:45:32;35.88;;;17.38;;
72379;SDS011;60354;47.798;12.472;2023-03-03T03:47:58;37.55;;;17.95;;
72379;SDS011;60354;47.798;12.472;2023-03-03T03:50:24;36.40;;;17.42;;
72379;SDS011;60354;47.798;12.472;2023-03-03T03:52:50;34.53;;;16.35;;
72379;SDS011;60354;47.798;12.472;2023-03-03T03:55:16;35.28;;;16.17;;
72379;SDS011;60354;47.798;12.472;2023-03-03T03:57:42;31.30;;;16.77;;
72379;SDS011;60354;47.798;12.472;2023-03-03T04:00:08;31.08;;;16.80;;
72379;SDS011;60354;47.798;12.472;2023-03-03T04:02:39;35.45;;;16.42;;
72379;SDS011;60354;47.798;12.472;2023-03-03T04:05:05;37.90;;;17.95;;
72379;SDS011;60354;47.798;12.472;2023-03-03T04:07:32;38.17;;;18.67;;
72379;SDS011;60354;47.798;12.472;2023-03-03T04:09:58;64.53;;;27.20;;
72379;SDS011;60354;47.798;12.472;2023-03-03T04:12:24;94.88;;;36.35;;
72379;SDS011;60354;47.798;12.472;2023-03-03T04:14:50;44.05;;;20.80;;
72379;SDS011;60354;47.798;12.472;2023-03-03T04:17:19;34.85;;;18.08;;
72379;SDS011;60354;47.798;12.472;2023-03-03T04:19:46;40.60;;;20.58;;
72379;SDS011;60354;47.798;12.472;2023-03-03T04:22:13;36.22;;;18.35;;
72379;SDS011;60354;47.798;12.472;2023-03-03T04:24:39;38.10;;;18.73;;
72379;SDS011;60354;47.798;12.472;2023-03-03T04:27:06;39.75;;;20.48;;
72379;SDS011;60354;47.798;12.472;2023-03-03T04:29:34;51.28;;;23.27;;
72379;SDS011;60354;47.798;12.472;2023-03-03T04:32:00;40.45;;;19.42;;
72379;SDS011;60354;47.798;12.472;2023-03-03T04:34:25;54.45;;;23.40;;
72379;SDS011;60354;47.798;12.472;2023-03-03T04:36:52;75.07;;;28.33;;
72379;SDS011;60354;47.798;12.472;2023-03-03T04:39:18;48.40;;;21.70;;
72379;SDS011;60354;47.798;12.472;2023-03-03T04:41:43;46.83;;;21.85;;
72379;SDS011;60354;47.798;12.472;2023-03-03T04:44:09;41.67;;;20.60;;
72379;SDS011;60354;47.798;12.472;2023-03-03T04:46:34;40.72;;;19.80;;
72379;SDS011;60354;47.798;12.472;2023-03-03T04:49:00;40.95;;;19.25;;
72379;SDS011;60354;47.798;12.472;2023-03-03T04:51:26;37.55;;;18.80;;
72379;SDS011;60354;47.798;12.472;2023-03-03T04:53:52;40.33;;;20.45;;
72379;SDS011;60354;47.798;12.472;2023-03-03T04:56:17;44.60;;;21.15;;
72379;SDS011;60354;47.798;12.472;2023-03-03T04:58:43;46.78;;;22.35;;
72379;SDS011;60354;47.798;12.472;2023-03-03T05:01:13;55.03;;;26.60;;
72379;SDS011;60354;47.798;12.472;2023-03-03T05:03:39;60.47;;;27.90;;
72379;SDS011;60354;47.798;12.472;2023-03-03T05:06:05;63.67;;;27.30;;
72379;SDS011;60354;47.798;12.472;2023-03-03T05:08:31;42.55;;;21.30;;
72379;SDS011;60354;47.798;12.472;2023-03-03T05:10:57;48.60;;;22.73;;
72379;SDS011;60354;47.798;12.472;2023-03-03T05:13:24;65.68;;;26.63;;
72379;SDS011;60354;47.798;12.472;2023-03-03T05:15:51;52.67;;;23.92;;
72379;SDS011;60354;47.798;12.472;2023-03-03T05:18:19;46.47;;;21.15;;
72379;SDS011;60354;47.798;12.472;2023-03-03T05:20:46;40.90;;;20.60;;
72379;SDS011;60354;47.798;12.472;2023-03-03T05:23:12;51.28;;;23.23;;
72379;SDS011;60354;47.798;12.472;2023-03-03T05:25:38;49.88;;;22.95;;
72379;SDS011;60354;47.798;12.472;2023-03-03T05:28:05;48.95;;;22.92;;
72379;SDS011;60354;47.798;12.472;2023-03-03T05:30:30;45.65;;;22.30;;
72379;SDS011;60354;47.798;12.472;2023-03-03T05:32:56;47.70;;;21.98;;
72379;SDS011;60354;47.798;12.472;2023-03-03T05:35:23;46.53;;;21.58;;
72379;SDS011;60354;47.798;12.472;2023-03-03T05:37:49;41.80;;;21.40;;
72379;SDS011;60354;47.798;12.472;2023-03-03T05:40:14;45.60;;;21.17;;
72379;SDS011;60354;47.798;12.472;2023-03-03T05:42:40;38.42;;;19.23;;
72379;SDS011;60354;47.798;12.472;2023-03-03T05:45:06;39.35;;;19.42;;
72379;SDS011;60354;47.798;12.472;2023-03-03T05:47:32;46.78;;;21.27;;
72379;SDS011;60354;47.798;12.472;2023-03-03T05:49:57;46.75;;;21.35;;
72379;SDS011;60354;47.798;12.472;2023-03-03T05:52:23;49.58;;;22.88;;
72379;SDS011;60354;47.798;12.472;2023-03-03T05:54:48;104.88;;;36.92;;
72379;SDS011;60354;47.798;12.472;2023-03-03T05:57:14;91.40;;;34.00;;
72379;SDS011;60354;47.798;12.472;2023-03-03T05:59:40;77.18;;;29.52;;
72379;SDS011;60354;47.798;12.472;2023-03-03T06:02:05;60.40;;;24.67;;
72379;SDS011;60354;47.798;12.472;2023-03-03T06:04:31;51.22;;;23.38;;
72379;SDS011;60354;47.798;12.472;2023-03-03T06:06:57;52.35;;;22.13;;
72379;SDS011;60354;47.798;12.472;2023-03-03T06:09:23;52.35;;;23.73;;
72379;SDS011;60354;47.798;12.472;2023-03-03T06:11:48;51.22;;;23.20;;
72379;SDS011;60354;47.798;12.472;2023-03-03T06:14:14;51.40;;;24.30;;
72379;SDS011;60354;47.798;12.472;2023-03-03T06:16:39;46.28;;;21.45;;
72379;SDS011;60354;47.798;12.472;2023-03-03T06:19:04;42.78;;;21.15;;
72379;SDS011;60354;47.798;12.472;2023-03-03T06:21:30;42.83;;;21.52;;
72379;SDS011;60354;47.798;12.472;2023-03-03T06:23:56;46.17;;;20.73;;
72379;SDS011;60354;47.798;12.472;2023-03-03T06:26:21;41.72;;;19.98;;
72379;SDS011;60354;47.798;12.472;2023-03-03T06:28:47;48.13;;;20.80;;
72379;SDS011;60354;47.798;12.472;2023-03-03T06:31:14;39.78;;;19.77;;
72379;SDS011;60354;47.798;12.472;2023-03-03T06:33:40;38.55;;;19.15;;
72379;SDS011;60354;47.798;12.472;2023-03-03T06:36:06;36.53;;;17.73;;
72379;SDS011;60354;47.798;12.472;2023-03-03T06:38:32;36.47;;;18.13;;
72379;SDS011;60354;47.798;12.472;2023-03-03T06:40:57;37.05;;;18.88;;
72379;SDS011;60354;47.798;12.472;2023-03-03T06:43:26;40.25;;;20.10;;
72379;SDS011;60354;47.798;12.472;2023-03-03T06:45:51;38.92;;;19.45;;
72379;SDS011;60354;47.798;12.472;2023-03-03T06:48:17;39.28;;;18.55;;
72379;SDS011;60354;47.798;12.472;2023-03-03T06:50:42;41.85;;;20.40;;
72379;SDS011;60354;47.798;12.472;2023-03-03T06:53:12;45.67;;;20.65;;
72379;SDS011;60354;47.798;12.472;2023-03-03T06:55:39;45.03;;;20.83;;
72379;SDS011;60354;47.798;12.472;2023-03-03T06:58:10;47.35;;;20.55;;
72379;SDS011;60354;47.798;12.472;2023-03-03T07:00:40;42.72;;;20.27;;
72379;SDS011;60354;47.798;12.472;2023-03-03T07:03:12;41.55;;;20.13;;
72379;SDS011;60354;47.798;12.472;2023-03-03T07:05:40;53.15;;;26.17;;
72379;SDS011;60354;47.798;12.472;2023-03-03T07:08:11;48.65;;;24.98;;
72379;SDS011;60354;47.798;12.472;2023-03-03T07:10:42;45.88;;;22.85;;
72379;SDS011;60354;47.798;12.472;2023-03-03T07:13:21;46.33;;;22.92;;
72379;SDS011;60354;47.798;12.472;2023-03-03T07:15:52;43.83;;;21.27;;
72379;SDS011;60354;47.798;12.472;2023-03-03T07:21:12;48.28;;;20.88;;
72379;SDS011;60354;47.798;12.472;2023-03-03T07:23:40;56.00;;;24.52;;
72379;SDS011;60354;47.798;12.472;2023-03-03T07:26:09;57.90;;;24.58;;
72379;SDS011;60354;47.798;12.472;2023-03-03T07:28:39;50.63;;;22.63;;
72379;SDS011;60354;47.798;12.472;2023-03-03T07:31:16;45.47;;;21.55;;
72379;SDS011;60354;47.798;12.472;2023-03-03T07:34:16;53.08;;;22.00;;
72379;SDS011;60354;47.798;12.472;2023-03-03T07:36:46;49.20;;;21.58;;
72379;SDS011;60354;47.798;12.472;2023-03-03T07:39:22;54.72;;;22.63;;
72379;SDS011;60354;47.798;12.472;2023-03-03T07:42:01;51.28;;;24.45;;
72379;SDS011;60354;47.798;12.472;2023-03-03T07:45:25;54.72;;;25.77;;
72379;SDS011;60354;47.798;12.472;2023-03-03T07:48:37;55.75;;;25.00;;
72379;SDS011;60354;47.798;12.472;2023-03-03T07:50:48;54.60;;;23.58;;
72379;SDS011;60354;47.798;12.472;2023-03-03T07:53:19;54.08;;;22.80;;
72379;SDS011;60354;47.798;12.472;2023-03-03T07:55:50;53.22;;;22.88;;
72379;SDS011;60354;47.798;12.472;2023-03-03T08:03:55;49.78;;;23.15;;
72379;SDS011;60354;47.798;12.472;2023-03-03T08:11:33;48.42;;;22.30;;
72379;SDS011;60354;47.798;12.472;2023-03-03T08:13:59;43.03;;;20.25;;
72379;SDS011;60354;47.798;12.472;2023-03-03T08:16:33;48.17;;;21.58;;
72379;SDS011;60354;47.798;12.472;2023-03-03T08:19:02;44.53;;;19.85;;
72379;SDS011;60354;47.798;12.472;2023-03-03T08:21:29;41.42;;;20.33;;
72379;SDS011;60354;47.798;12.472;2023-03-03T08:23:56;42.30;;;19.75;;
72379;SDS011;60354;47.798;12.472;2023-03-03T08:26:23;43.60;;;21.00;;
72379;SDS011;60354;47.798;12.472;2023-03-03T08:28:49;41.20;;;19.60;;
72379;SDS011;60354;47.798;12.472;2023-03-03T08:31:16;44.38;;;21.00;;
72379;SDS011;60354;47.798;12.472;2023-03-03T08:33:42;47.80;;;21.52;;
72379;SDS011;60354;47.798;12.472;2023-03-03T08:36:10;46.20;;;22.65;;
72379;SDS011;60354;47.798;12.472;2023-03-03T08:38:36;48.10;;;23.23;;
72379;SDS011;60354;47.798;12.472;2023-03-03T08:41:02;49.85;;;22.73;;
72379;SDS011;60354;47.798;12.472;2023-03-03T08:43:28;48.08;;;21.70;;
72379;SDS011;60354;47.798;12.472;2023-03-03T08:45:55;50.58;;;23.02;;
72379;SDS011;60354;47.798;12.472;2023-03-03T08:48:23;45.42;;;22.13;;
72379;SDS011;60354;47.798;12.472;2023-03-03T08:50:49;54.22;;;23.83;;
72379;SDS011;60354;47.798;12.472;2023-03-03T08:53:15;49.78;;;23.23;;
72379;SDS011;60354;47.798;12.472;2023-03-03T08:55:42;48.53;;;22.65;;
72379;SDS011;60354;47.798;12.472;2023-03-03T08:58:08;46.53;;;21.67;;
72379;SDS011;60354;47.798;12.472;2023-03-03T09:00:33;45.50;;;21.30;;
72379;SDS011;60354;47.798;12.472;2023-03-03T09:02:59;51.00;;;21.77;;
72379;SDS011;60354;47.798;12.472;2023-03-03T09:05:24;46.28;;;21.77;;
72379;SDS011;60354;47.798;12.472;2023-03-03T09:07:51;48.78;;;22.05;;
72379;SDS011;60354;47.798;12.472;2023-03-03T09:10:18;54.20;;;22.42;;
72379;SDS011;60354;47.798;12.472;2023-03-03T09:12:53;50.35;;;22.23;;
72379;SDS011;60354;47.798;12.472;2023-03-03T09:15:23;45.97;;;21.27;;
72379;SDS011;60354;47.798;12.472;2023-03-03T09:17:49;48.55;;;22.15;;
72379;SDS011;60354;47.798;12.472;2023-03-03T09:23:16;61.30;;;27.05;;
72379;SDS011;60354;47.798;12.472;2023-03-03T09:25:55;57.67;;;26.58;;
72379;SDS011;60354;47.798;12.472;2023-03-03T09:28:22;49.83;;;25.10;;
72379;SDS011;60354;47.798;12.472;2023-03-03T09:30:50;61.65;;;27.73;;
72379;SDS011;60354;47.798;12.472;2023-03-03T09:38:44;47.10;;;22.70;;
72379;SDS011;60354;47.798;12.472;2023-03-03T09:47:07;47.80;;;22.17;;
72379;SDS011;60354;47.798;12.472;2023-03-03T09:52:29;45.50;;;21.40;;
72379;SDS011;60354;47.798;12.472;2023-03-03T09:57:46;53.28;;;22.88;;
72379;SDS011;60354;47.798;12.472;2023-03-03T10:05:54;65.57;;;29.80;;
72379;SDS011;60354;47.798;12.472;2023-03-03T10:21:44;49.60;;;24.40;;
72379;SDS011;60354;47.798;12.472;2023-03-03T10:24:28;59.50;;;26.98;;
72379;SDS011;60354;47.798;12.472;2023-03-03T10:30:34;63.80;;;27.20;;
72379;SDS011;60354;47.798;12.472;2023-03-03T10:32:44;54.85;;;25.05;;
72379;SDS011;60354;47.798;12.472;2023-03-03T10:41:02;51.90;;;23.40;;
72379;SDS011;60354;47.798;12.472;2023-03-03T10:49:52;58.17;;;26.48;;
72379;SDS011;60354;47.798;12.472;2023-03-03T11:00:32;48.53;;;22.52;;
72379;SDS011;60354;47.798;12.472;2023-03-03T11:06:03;52.38;;;22.45;;
72379;SDS011;60354;47.798;12.472;2023-03-03T11:08:45;53.47;;;23.42;;
72379;SDS011;60354;47.798;12.472;2023-03-03T11:11:23;56.45;;;24.25;;
72379;SDS011;60354;47.798;12.472;2023-03-03T11:14:02;54.92;;;24.95;;
72379;SDS011;60354;47.798;12.472;2023-03-03T11:28:04;55.97;;;27.02;;
72379;SDS011;60354;47.798;12.472;2023-03-03T11:33:31;52.13;;;23.75;;
72379;SDS011;60354;47.798;12.472;2023-03-03T11:36:08;54.17;;;25.15;;
72379;SDS011;60354;47.798;12.472;2023-03-03T11:43:57;51.22;;;24.30;;
72379;SDS011;60354;47.798;12.472;2023-03-03T11:46:31;57.38;;;24.38;;
72379;SDS011;60354;47.798;12.472;2023-03-03T11:49:03;54.50;;;24.33;;
72379;SDS011;60354;47.798;12.472;2023-03-03T11:51:36;56.13;;;24.20;;
72379;SDS011;60354;47.798;12.472;2023-03-03T12:04:52;49.13;;;23.55;;
72379;SDS011;60354;47.798;12.472;2023-03-03T12:07:31;51.45;;;24.17;;
72379;SDS011;60354;47.798;12.472;2023-03-03T12:10:24;52.33;;;24.17;;
72379;SDS011;60354;47.798;12.472;2023-03-03T12:12:57;54.38;;;24.80;;
72379;SDS011;60354;47.798;12.472;2023-03-03T12:15:42;60.30;;;28.48;;
72379;SDS011;60354;47.798;12.472;2023-03-03T12:40:22;48.53;;;24.98;;
72379;SDS011;60354;47.798;12.472;2023-03-03T12:45:54;57.13;;;22.90;;
72379;SDS011;60354;47.798;12.472;2023-03-03T12:48:40;53.72;;;24.25;;
72379;SDS011;60354;47.798;12.472;2023-03-03T12:59:28;50.55;;;23.65;;
72379;SDS011;60354;47.798;12.472;2023-03-03T13:10:45;54.42;;;22.60;;
72379;SDS011;60354;47.798;12.472;2023-03-03T13:15:47;52.42;;;25.40;;
72379;SDS011;60354;47.798;12.472;2023-03-03T13:18:27;53.88;;;24.60;;
72379;SDS011;60354;47.798;12.472;2023-03-03T13:31:22;50.35;;;23.55;;
72379;SDS011;60354;47.798;12.472;2023-03-03T13:33:53;50.03;;;24.70;;
72379;SDS011;60354;47.798;12.472;2023-03-03T13:36:30;51.42;;;24.92;;
72379;SDS011;60354;47.798;12.472;2023-03-03T13:42:09;52.58;;;24.25;;
72379;SDS011;60354;47.798;12.472;2023-03-03T13:44:39;50.22;;;23.70;;
72379;SDS011;60354;47.798;12.472;2023-03-03T13:52:10;59.90;;;25.38;;
72379;SDS011;60354;47.798;12.472;2023-03-03T14:00:15;53.40;;;23.90;;
72379;SDS011;60354;47.798;12.472;2023-03-03T14:03:07;51.25;;;24.65;;
72379;SDS011;60354;47.798;12.472;2023-03-03T14:05:37;48.80;;;23.30;;
72379;SDS011;60354;47.798;12.472;2023-03-03T14:13:41;54.05;;;24.73;;
72379;SDS011;60354;47.798;12.472;2023-03-03T14:16:19;54.30;;;24.63;;
72379;SDS011;60354;47.798;12.472;2023-03-03T14:18:56;58.15;;;26.25;;
72379;SDS011;60354;47.798;12.472;2023-03-03T14:21:27;55.00;;;24.90;;
72379;SDS011;60354;47.798;12.472;2023-03-03T14:24:06;54.35;;;23.42;;
72379;SDS011;60354;47.798;12.472;2023-03-03T14:26:50;54.42;;;24.27;;
72379;SDS011;60354;47.798;12.472;2023-03-03T14:31:52;46.65;;;24.20;;
72379;SDS011;60354;47.798;12.472;2023-03-03T14:36:46;51.72;;;24.25;;
72379;SDS011;60354;47.798;12.472;2023-03-03T14:45:20;50.00;;;24.17;;
72379;SDS011;60354;47.798;12.472;2023-03-03T14:50:47;51.92;;;25.23;;
72379;SDS011;60354;47.798;12.472;2023-03-03T14:55:44;56.97;;;25.02;;
72379;SDS011;60354;47.798;12.472;2023-03-03T14:58:23;50.90;;;26.10;;
72379;SDS011;60354;47.798;12.472;2023-03-03T15:00:49;52.63;;;24.75;;
72379;SDS011;60354;47.798;12.472;2023-03-03T15:03:26;50.25;;;24.90;;
72379;SDS011;60354;47.798;12.472;2023-03-03T15:05:54;54.78;;;24.60;;
72379;SDS011;60354;47.798;12.472;2023-03-03T15:08:32;48.60;;;24.85;;
72379;SDS011;60354;47.798;12.472;2023-03-03T15:11:12;47.72;;;23.73;;
72379;SDS011;60354;47.798;12.472;2023-03-03T15:13:44;54.83;;;24.50;;
72379;SDS011;60354;47.798;12.472;2023-03-03T15:16:11;55.55;;;24.92;;
72379;SDS011;60354;47.798;12.472;2023-03-03T15:21:32;48.47;;;24.58;;
72379;SDS011;60354;47.798;12.472;2023-03-03T15:24:05;50.67;;;24.42;;
72379;SDS011;60354;47.798;12.472;2023-03-03T15:32:14;52.63;;;24.77;;
72379;SDS011;60354;47.798;12.472;2023-03-03T15:35:05;54.92;;;24.50;;
72379;SDS011;60354;47.798;12.472;2023-03-03T15:37:51;48.13;;;25.80;;
72379;SDS011;60354;47.798;12.472;2023-03-03T15:40:38;62.90;;;27.92;;
72379;SDS011;60354;47.798;12.472;2023-03-03T15:56:56;50.35;;;24.55;;
72379;SDS011;60354;47.798;12.472;2023-03-03T15:59:32;54.47;;;25.92;;
72379;SDS011;60354;47.798;12.472;2023-03-03T16:07:24;52.10;;;25.60;;
72379;SDS011;60354;47.798;12.472;2023-03-03T16:09:55;52.38;;;24.67;;
72379;SDS011;60354;47.798;12.472;2023-03-03T16:15:29;48.22;;;23.67;;
72379;SDS011;60354;47.798;12.472;2023-03-03T16:23:45;58.20;;;24.75;;
72379;SDS011;60354;47.798;12.472;2023-03-03T16:35:28;57.17;;;27.05;;
72379;SDS011;60354;47.798;12.472;2023-03-03T16:37:25;55.92;;;26.75;;
72379;SDS011;60354;47.798;12.472;2023-03-03T16:40:10;53.97;;;25.83;;
72379;SDS011;60354;47.798;12.472;2023-03-03T16:42:44;50.28;;;25.05;;
72379;SDS011;60354;47.798;12.472;2023-03-03T17:01:16;59.95;;;27.60;;
72379;SDS011;60354;47.798;12.472;2023-03-03T17:06:58;52.50;;;25.42;;
72379;SDS011;60354;47.798;12.472;2023-03-03T17:21:11;48.88;;;22.70;;
72379;SDS011;60354;47.798;12.472;2023-03-03T17:23:52;47.72;;;22.80;;
72379;SDS011;60354;47.798;12.472;2023-03-03T17:29:14;51.13;;;25.10;;
72379;SDS011;60354;47.798;12.472;2023-03-03T17:32:11;54.15;;;23.85;;
72379;SDS011;60354;47.798;12.472;2023-03-03T17:41:10;49.42;;;23.77;;
72379;SDS011;60354;47.798;12.472;2023-03-03T17:46:28;47.17;;;23.15;;
72379;SDS011;60354;47.798;12.472;2023-03-03T18:21:53;68.82;;;32.33;;
72379;SDS011;60354;47.798;12.472;2023-03-03T18:24:38;56.63;;;25.52;;
72379;SDS011;60354;47.798;12.472;2023-03-03T18:30:31;54.92;;;25.48;;
72379;SDS011;60354;47.798;12.472;2023-03-03T18:35:25;54.75;;;24.20;;
72379;SDS011;60354;47.798;12.472;2023-03-03T18:40:58;52.95;;;24.00;;
72379;SDS011;60354;47.798;12.472;2023-03-03T18:49:04;55.17;;;24.77;;
72379;SDS011;60354;47.798;12.472;2023-03-03T19:05:04;60.53;;;26.70;;
72379;SDS011;60354;47.798;12.472;2023-03-03T19:08:15;71.15;;;29.33;;
72379;SDS011;60354;47.798;12.472;2023-03-03T19:15:54;55.28;;;25.10;;
72379;SDS011;60354;47.798;12.472;2023-03-03T19:18:30;61.03;;;24.65;;
72379;SDS011;60354;47.798;12.472;2023-03-03T19:20:59;57.08;;;25.92;;
72379;SDS011;60354;47.798;12.472;2023-03-03T19:23:47;60.42;;;26.92;;
72379;SDS011;60354;47.798;12.472;2023-03-03T19:31:28;51.33;;;25.40;;
72379;SDS011;60354;47.798;12.472;2023-03-03T19:34:02;51.10;;;23.63;;
72379;SDS011;60354;47.798;12.472;2023-03-03T19:47:21;54.60;;;26.52;;
72379;SDS011;60354;47.798;12.472;2023-03-03T19:50:06;61.38;;;27.58;;
72379;SDS011;60354;47.798;12.472;2023-03-03T19:52:37;63.38;;;28.60;;
72379;SDS011;60354;47.798;12.472;2023-03-03T20:07:22;58.38;;;25.65;;
72379;SDS011;60354;47.798;12.472;2023-03-03T20:21:17;57.58;;;26.83;;
72379;SDS011;60354;47.798;12.472;2023-03-03T20:29:22;59.70;;;25.90;;
72379;SDS011;60354;47.798;12.472;2023-03-03T20:34:57;55.65;;;23.98;;
72379;SDS011;60354;47.798;12.472;2023-03-03T20:51:29;58.90;;;25.25;;
72379;SDS011;60354;47.798;12.472;2023-03-03T20:54:05;63.72;;;26.95;;
72379;SDS011;60354;47.798;12.472;2023-03-03T20:56:38;58.33;;;25.95;;
72379;SDS011;60354;47.798;12.472;2023-03-03T21:05:08;49.58;;;22.83;;
72379;SDS011;60354;47.798;12.472;2023-03-03T21:07:57;62.00;;;24.13;;
72379;SDS011;60354;47.798;12.472;2023-03-03T21:10:27;59.45;;;25.02;;
72379;SDS011;60354;47.798;12.472;2023-03-03T21:12:56;54.40;;;23.25;;
72379;SDS011;60354;47.798;12.472;2023-03-03T21:17:48;48.72;;;22.02;;
72379;SDS011;60354;47.798;12.472;2023-03-03T21:22:57;52.88;;;23.10;;
72379;SDS011;60354;47.798;12.472;2023-03-03T21:31:10;60.60;;;24.45;;
72379;SDS011;60354;47.798;12.472;2023-03-03T21:36:47;58.00;;;25.52;;
72379;SDS011;60354;47.798;12.472;2023-03-03T21:41:52;53.08;;;22.75;;
72379;SDS011;60354;47.798;12.472;2023-03-03T21:44:33;48.00;;;21.75;;
72379;SDS011;60354;47.798;12.472;2023-03-03T21:47:21;42.30;;;20.45;;
72379;SDS011;60354;47.798;12.472;2023-03-03T21:49:50;49.33;;;20.85;;
72379;SDS011;60354;47.798;12.472;2023-03-03T21:52:17;44.28;;;20.48;;
72379;SDS011;60354;47.798;12.472;2023-03-03T21:54:45;47.63;;;21.10;;
72379;SDS011;60354;47.798;12.472;2023-03-03T21:57:11;49.30;;;22.38;;
72379;SDS011;60354;47.798;12.472;2023-03-03T21:59:38;50.25;;;22.45;;
72379;SDS011;60354;47.798;12.472;2023-03-03T22:02:04;51.88;;;21.90;;